McHenry, IL (60051)

5:13 PM CST en Enero 30, 2015 (GMT -0600)
Glacier Ridge - West Side | Change Station
CLOSE
Current Station
Estación meteorológica personal
Location: McHenry, IL
Altura: 925 ft
Estaciones meteorológicas cercanas
Aviso en curso: Winter Storm Watch

Alt 925 ft 42.35 °N, 88.33 °W | Updated 1 minute ago

Despejado
Despejado
26.2 ° F
Sensación térmica 26 ° F
N
0.0
Viento Variable Viento desde Sur
Gusts 0.0 mph

Hoy
Alta -- | Baja -- ° F
--% Posibilidad de precipitaciones
Ayer
Alta -- | Baja -- ° F
Precip. -- pul
7:08 AM 5:04 PM
Gibosa creciente, 85% visible
Presión 30.47 pul
Visibilidad 10.0 Millas
Nubes Despejado
Vientos helados 26 ° F
Punto de rocío 12 ° F
Humedad 54%
Precipitaciones 0.00 pul
Espesor de la nieve No disponible.
UV 0 de una escala de 12
Polen .10 de una escala de 12
Calidad del aire No disponible.
Flu Activity No disponible.
METAR KUGN 302255Z 00000KT 10SM CLR M04/M11 A3041 RMK AO2 SLP318 T10441106

More Conditions Fewer Conditions

Presión 30.47 pul
Visibilidad 10.0 Millas
Nubes Despejado
Vientos helados 26 ° F
Punto de rocío 12 ° F
Humedad 54%
Precipitaciones 0.00 pul
Espesor de la nieve No disponible.
UV 0 de una escala de 12
Polen .10 de una escala de 12
Calidad del aire No disponible.
Flu Activity No disponible.
METAR KUGN 302255Z 00000KT 10SM CLR M04/M11 A3041 RMK AO2 SLP318 T10441106

More Conditions Fewer Conditions

10-Day Weather Forecast

Almanac

Astronomía

Jan. 30, 2015 Salida Puesta
Hora real
Crepúsculo civil
Crepúsculo náutico
Crepúsculo astronómico
Luna
Horas de luz
Horas de luz
Tomorrow will be .
, % of the Moon is Illuminated

Extremos de hoy

Máximos del estado Bajos del estado

Community

WunderPhotos

Upload Photos

1,791,918 ¡fotos cargadas!

WunderBlogs® & News

Nearby

Calidad del aire

  Calidad del aire Índice AQ Contaminante
Not available.

Grosos de nieve

Estación Profundido Altura

Actividad de terremotos

Ciudad Distance Mag. Tiempo y dato
Magnitud mínima muestra es 2,5.

Temperaturas de aguas costeras

Lugar Temperatura

Estaciones meteorológicas cercanas